ESST

Torsby Airport

Sweden
METAR ESST 231050Z AUTO VRB03KT 9999 NCD 22/10 Q1025
Observed Flight Rules
May-23 @ 10:50 UTC (14 minutes ago) Visual Flight Rules
Wind Visibility Clouds
Variable at 3 knots 10,000+ meters
  • Clear skies
Temperatures Readings
Current 22°C / 72°F
Dewpoint 10°C / 50°F
Humidity 47%
Altimeter 30.27" Hg
Pressure 1025 hPa
Elevation 120
METAR ESST 231050Z AUTO VRB03KT 9999 NCD 22/10 Q1025
Observed Flight Rules
May-23 @ 10:50 UTC
(14 minutes ago)
VFR
Wind Visibility
Variable at 3 knots 10,000+ meters
Clouds
  • Clear skies
Temperature Dewpoint
22°C / 72°F 10°C / 50°F
Humidity Altimeter Pressure
47% 30.27" Hg 1025 hPa